Portada
METAR-TAF:

METAR-TAF

Aeroports :

Le Mans, França

latitud: 47-56N, longitud: 000-12E, altitud: 59 m

Observació

L'informe es va fer fa 27 minuts, a les 02:30 UTC
Vent 7 kt del Nord/Nord-Est
Temperatura 10°C
Humitat 76%
Pressió 1019 hPa
Visibilitat: 6000 m

METAR: LFRM 220230Z AUTO 03007KT 6000 NSC 10/06 Q1019

Hora: 04:57 (02:57 UTC)

Pronòstic

L'informe es va fer fa 9 hores i 57 minuts, a les 17:00 UTC
Pronòstic vàlid del 21 a les 18 UTC al 22 a les 18 UTC
Vent 8 kt del Est/Nord-Est
Visibilitat 10 km o més
sense núvols per sota de 1500 mi sense presència de cumulonimbus.

TAF: LFRM 211700Z 2118/2218 06008KT CAVOK

Observacions i pronòstics meteorològics de més de 4000 aeroports (METAR i TAF).

Les estacions disponibles són els punts grocs i vermells al mapa.

Posi el ratolí al punt desitjat per veure el nom de l'estació.

Feu clic per veure les observacions i els pronòstics meteorològics.

Per canviar el mapa: feu clic els botons verds amb una creu de color negre per apropar; al botó verd amb un guió per allunyar la imatge; o en les fletxes verdes per a mapes adjacents.


METAR-TAF: